createdAt,value
2023-05-14T00:00:47.881Z,102052.44
2023-05-14T00:03:14.453Z,102046.25
2023-05-14T00:05:48.307Z,102044.50
2023-05-14T00:08:14.794Z,102037.41
2023-05-14T00:10:41.217Z,102031.22
2023-05-14T00:13:07.647Z,102036.53
2023-05-14T00:15:34.572Z,102039.16
2023-05-14T00:20:29.962Z,102013.47
2023-05-14T00:22:56.572Z,102015.25
2023-05-14T00:25:23.166Z,102014.34
2023-05-14T00:27:52.170Z,102012.59
2023-05-14T00:30:18.695Z,102012.56
2023-05-14T00:32:45.142Z,102009.88
2023-05-14T00:35:11.602Z,102005.47
2023-05-14T00:37:39.207Z,102008.09
2023-05-14T00:40:07.199Z,102004.56
2023-05-14T00:42:33.725Z,102008.97
2023-05-14T00:45:00.468Z,102000.16
2023-05-14T00:47:27.357Z,102005.44
2023-05-14T00:49:57.837Z,101992.16
2023-05-14T00:52:25.575Z,101995.69
2023-05-14T00:54:52.494Z,101984.19
2023-05-14T00:57:19.195Z,101987.69
2023-05-14T00:59:45.926Z,101984.19
2023-05-14T01:02:12.400Z,101983.25
2023-05-14T01:04:39.766Z,101978.84
2023-05-14T01:07:21.290Z,101986.75
2023-05-14T01:10:01.553Z,101989.44
2023-05-14T01:12:45.675Z,101996.47
2023-05-14T01:15:24.714Z,101984.97
2023-05-14T01:18:03.037Z,101986.72
2023-05-14T01:20:29.590Z,101986.69
2023-05-14T01:22:56.125Z,101984.94
2023-05-14T01:25:22.787Z,101989.34
2023-05-14T01:27:53.011Z,101990.22
2023-05-14T01:30:27.219Z,101986.66
2023-05-14T01:32:56.374Z,101989.31
2023-05-14T01:35:32.160Z,101996.34
2023-05-14T01:38:02.124Z,101979.53
2023-05-14T01:40:29.663Z,101986.63
2023-05-14T01:42:56.852Z,101979.50
2023-05-14T01:45:26.585Z,101973.34
2023-05-14T01:47:53.606Z,101969.78
2023-05-14T01:50:20.359Z,101977.69
2023-05-14T01:52:48.265Z,101965.31
2023-05-14T01:55:15.899Z,101973.28
2023-05-14T01:57:42.375Z,101960.00
2023-05-14T02:00:09.366Z,101960.84
2023-05-14T02:02:35.781Z,101967.91
2023-05-14T02:05:02.945Z,101952.03
2023-05-14T02:07:30.348Z,101959.97
2023-05-14T02:09:56.907Z,101956.41
2023-05-14T02:12:23.494Z,101950.22
2023-05-14T02:14:49.944Z,101959.91
2023-05-14T02:17:17.642Z,101953.75
2023-05-14T02:19:44.656Z,101953.75
2023-05-14T02:22:13.481Z,101955.47
2023-05-14T02:24:43.066Z,101963.41
2023-05-14T02:27:09.679Z,101952.81
2023-05-14T02:29:36.230Z,101951.03
2023-05-14T02:32:02.739Z,101933.31
2023-05-14T02:34:35.320Z,101933.31
2023-05-14T02:37:01.913Z,101944.78
2023-05-14T02:39:30.646Z,101945.69
2023-05-14T02:41:57.063Z,101949.25
2023-05-14T02:44:26.085Z,101943.00
2023-05-14T02:46:52.537Z,101944.78
2023-05-14T02:49:18.887Z,101938.59
2023-05-14T02:51:45.387Z,101935.06
2023-05-14T02:54:11.933Z,101929.72
2023-05-14T02:56:39.578Z,101929.72
2023-05-14T02:59:09.393Z,101934.09
2023-05-14T03:01:36.349Z,101935.00
2023-05-14T03:04:03.328Z,101935.88
2023-05-14T03:06:32.455Z,101938.50
2023-05-14T03:08:58.853Z,101937.63
2023-05-14T03:11:25.472Z,101938.47
2023-05-14T03:13:51.886Z,101931.41
2023-05-14T03:16:18.422Z,101932.25
2023-05-14T03:18:44.971Z,101937.59
2023-05-14T03:21:11.428Z,101932.28
2023-05-14T03:23:38.072Z,101926.94
2023-05-14T03:26:04.948Z,101938.41
2023-05-14T03:28:31.392Z,101927.78
2023-05-14T03:30:57.997Z,101930.44
2023-05-14T03:33:24.566Z,101929.53
2023-05-14T03:35:51.633Z,101929.53
2023-05-14T03:38:18.130Z,101925.09
2023-05-14T03:40:45.515Z,101918.03
2023-05-14T03:43:11.871Z,101914.53
2023-05-14T03:45:40.420Z,101919.81
2023-05-14T03:48:06.988Z,101912.78
2023-05-14T03:50:33.610Z,101917.19
2023-05-14T03:53:00.179Z,101910.13
2023-05-14T03:55:33.869Z,101910.97
2023-05-14T03:58:00.514Z,101905.66
2023-05-14T04:00:27.335Z,101909.19
2023-05-14T04:02:54.177Z,101910.91
2023-05-14T04:05:20.758Z,101907.38
2023-05-14T04:07:47.192Z,101917.06
2023-05-14T04:10:14.147Z,101920.56
2023-05-14T04:12:40.580Z,101909.97
2023-05-14T04:15:10.420Z,101922.34
2023-05-14T04:17:36.887Z,101916.19
2023-05-14T04:20:04.379Z,101916.19
2023-05-14T04:22:30.977Z,101917.09
2023-05-14T04:24:57.580Z,101908.28
2023-05-14T04:27:24.173Z,101916.19
2023-05-14T04:29:50.799Z,101915.34
2023-05-14T04:32:18.096Z,101912.66
2023-05-14T04:34:44.590Z,101917.13
2023-05-14T04:37:10.981Z,101910.09
2023-05-14T04:39:37.872Z,101921.59
2023-05-14T04:42:04.942Z,101912.78
2023-05-14T04:44:31.561Z,101923.38
2023-05-14T04:47:00.403Z,101914.59
2023-05-14T04:49:27.032Z,101915.50
2023-05-14T04:51:58.867Z,101913.69
2023-05-14T04:54:25.346Z,101910.16
2023-05-14T04:56:51.772Z,101914.59
2023-05-14T04:59:18.203Z,101913.69
2023-05-14T05:01:45.760Z,101918.16
2023-05-14T05:04:12.586Z,101908.50
2023-05-14T05:06:39.170Z,101920.00
2023-05-14T05:09:05.665Z,101928.84
2023-05-14T05:11:32.154Z,101918.31
2023-05-14T05:13:58.649Z,101916.56
2023-05-14T05:16:25.313Z,101920.97
2023-05-14T05:18:51.840Z,101926.31
2023-05-14T05:21:20.666Z,101937.88
2023-05-14T05:23:47.155Z,101929.06
2023-05-14T05:26:13.646Z,101932.63
2023-05-14T05:28:42.547Z,101921.16
2023-05-14T05:31:09.057Z,101923.81
2023-05-14T05:33:38.790Z,101911.53
2023-05-14T05:36:05.504Z,101922.13
2023-05-14T05:38:31.913Z,101930.13
2023-05-14T05:40:58.398Z,101934.56
2023-05-14T05:43:24.845Z,101927.53
2023-05-14T05:45:51.350Z,101924.94
2023-05-14T05:48:20.333Z,101933.75
2023-05-14T05:50:50.203Z,101933.75
2023-05-14T05:53:16.903Z,101921.41
2023-05-14T05:55:43.333Z,101926.72
2023-05-14T05:58:09.793Z,101927.66
2023-05-14T06:00:36.382Z,101929.47
2023-05-14T06:03:02.876Z,101926.88
2023-05-14T06:05:29.371Z,101932.19
2023-05-14T06:07:55.788Z,101938.34
2023-05-14T06:10:22.815Z,101926.00
2023-05-14T06:12:49.484Z,101948.09
2023-05-14T06:15:16.105Z,101932.19
2023-05-14T06:17:42.650Z,101926.00
2023-05-14T06:20:09.936Z,101933.06
2023-05-14T06:22:36.509Z,101933.94
2023-05-14T06:25:03.598Z,101941.91
2023-05-14T06:27:30.326Z,101941.91
2023-05-14T06:29:56.708Z,101931.28
2023-05-14T06:32:23.215Z,101926.81
2023-05-14T06:34:49.639Z,101932.16
2023-05-14T06:37:16.164Z,101928.59
2023-05-14T06:39:50.052Z,101926.81
2023-05-14T06:42:19.443Z,101930.44
2023-05-14T06:44:45.894Z,101930.41
2023-05-14T06:47:12.390Z,101931.28
2023-05-14T06:49:39.403Z,101933.06
2023-05-14T06:52:06.366Z,101931.25
2023-05-14T06:54:32.882Z,101922.31
2023-05-14T06:56:59.462Z,101927.44
2023-05-14T06:59:26.329Z,101929.84
2023-05-14T07:01:52.797Z,101927.81
2023-05-14T07:04:19.521Z,101930.19
2023-05-14T07:06:46.064Z,101925.47
2023-05-14T07:09:16.532Z,101928.91
2023-05-14T07:11:43.079Z,101916.38
2023-05-14T07:14:09.511Z,101931.25
2023-05-14T07:16:36.305Z,101931.25
2023-05-14T07:19:02.975Z,101926.84
2023-05-14T07:21:36.078Z,101940.25
2023-05-14T07:24:02.572Z,101938.47
2023-05-14T07:26:29.346Z,101927.94
2023-05-14T07:28:55.773Z,101937.78
2023-05-14T07:31:22.215Z,101932.50
2023-05-14T07:33:48.644Z,101934.31
2023-05-14T07:36:15.367Z,101929.81
2023-05-14T07:38:41.879Z,101923.63
2023-05-14T07:41:08.457Z,101925.38
2023-05-14T07:43:34.923Z,101926.22
2023-05-14T07:46:04.609Z,101918.19
2023-05-14T07:48:31.215Z,101921.72
2023-05-14T07:50:57.649Z,101927.81
2023-05-14T07:53:24.874Z,101933.81
2023-05-14T07:55:51.709Z,101912.19
2023-05-14T07:58:18.684Z,101916.34
2023-05-14T08:00:45.109Z,101919.69
2023-05-14T08:03:11.915Z,101918.56
2023-05-14T08:05:38.484Z,101915.56
2023-05-14T08:08:04.908Z,101917.75
2023-05-14T08:10:34.416Z,101912.78
2023-05-14T08:13:01.130Z,101913.19
2023-05-14T08:15:28.142Z,101906.44
2023-05-14T08:17:54.629Z,101917.47
2023-05-14T08:20:21.198Z,101910.81
2023-05-14T08:22:47.671Z,101915.91
2023-05-14T08:25:14.300Z,101910.31
2023-05-14T08:27:40.761Z,101914.69
2023-05-14T08:30:07.704Z,101912.63
2023-05-14T08:32:34.144Z,101915.75
2023-05-14T08:35:00.804Z,101909.03
2023-05-14T08:37:27.411Z,101921.06
2023-05-14T08:39:53.880Z,101903.84
2023-05-14T08:42:22.303Z,101900.22
2023-05-14T08:44:53.752Z,101898.16
2023-05-14T08:47:21.612Z,101901.53
2023-05-14T08:49:54.914Z,101891.63
2023-05-14T08:52:23.231Z,101888.94
2023-05-14T08:54:52.802Z,101887.00
2023-05-14T08:57:20.273Z,101890.53
2023-05-14T08:59:47.367Z,101894.75
2023-05-14T09:02:15.501Z,101887.22
2023-05-14T09:04:42.532Z,101873.81
2023-05-14T09:07:09.445Z,101878.16
2023-05-14T09:09:36.665Z,101876.69
2023-05-14T09:12:03.300Z,101882.84
2023-05-14T09:14:29.968Z,101880.66
2023-05-14T09:16:57.036Z,101874.94
2023-05-14T09:19:24.038Z,101863.97
2023-05-14T09:21:50.797Z,101867.28
2023-05-14T09:24:25.778Z,101837.41
2023-05-14T09:26:57.446Z,101847.72
2023-05-14T09:29:28.665Z,101873.69
2023-05-14T09:31:56.603Z,101860.75
2023-05-14T09:34:35.107Z,101867.63
2023-05-14T09:37:05.789Z,101866.34
2023-05-14T09:39:33.430Z,101860.63
2023-05-14T09:42:02.868Z,101852.38
2023-05-14T09:44:29.668Z,101854.81
2023-05-14T09:46:56.438Z,101851.84
2023-05-14T09:49:23.245Z,101843.19
2023-05-14T09:51:51.944Z,101828.63
2023-05-14T09:54:18.572Z,101840.31
2023-05-14T09:56:45.225Z,101837.16
2023-05-14T09:59:11.796Z,101838.13
2023-05-14T10:01:38.564Z,101842.50
2023-05-14T10:04:08.255Z,101845.28
2023-05-14T10:06:39.149Z,101845.97
2023-05-14T10:09:13.755Z,101841.84
2023-05-14T10:11:43.861Z,101842.09
2023-05-14T10:14:39.896Z,101838.81
2023-05-14T10:17:07.738Z,101836.78
2023-05-14T10:19:37.322Z,101833.91
2023-05-14T10:22:05.043Z,101827.47
2023-05-14T10:24:32.822Z,101829.84
2023-05-14T10:26:59.720Z,101819.22
2023-05-14T10:29:37.356Z,101821.03
2023-05-14T10:32:06.565Z,101825.41
2023-05-14T10:34:34.705Z,101818.66
2023-05-14T10:37:02.652Z,101825.47
2023-05-14T10:39:42.283Z,101818.25
2023-05-14T10:42:11.839Z,101824.28
2023-05-14T10:44:42.840Z,101823.59
2023-05-14T10:47:11.513Z,101822.91
2023-05-14T10:49:43.407Z,101815.19
2023-05-14T10:52:11.966Z,101809.63
2023-05-14T10:54:38.906Z,101811.91
2023-05-14T10:57:11.661Z,101795.44
2023-05-14T10:59:44.558Z,101812.59
2023-05-14T11:02:41.240Z,101806.44
2023-05-14T11:05:14.358Z,101805.41
2023-05-14T11:07:46.235Z,101807.84
2023-05-14T11:10:17.329Z,101795.88
2023-05-14T11:12:46.112Z,101801.63
2023-05-14T11:15:15.757Z,101796.13
2023-05-14T11:17:43.870Z,101799.75
2023-05-14T11:20:11.267Z,101797.22
2023-05-14T11:22:45.272Z,101794.13
2023-05-14T11:25:20.095Z,101790.63
2023-05-14T11:27:48.249Z,101792.41
2023-05-14T11:30:16.639Z,101788.53
2023-05-14T11:32:45.698Z,101781.44
2023-05-14T11:35:12.964Z,101778.81
2023-05-14T11:37:44.382Z,101775.03
2023-05-14T11:40:19.024Z,101778.13
2023-05-14T11:42:45.796Z,101768.78
2023-05-14T11:45:13.139Z,101770.88
2023-05-14T11:47:41.879Z,101766.53
2023-05-14T11:50:09.636Z,101774.03
2023-05-14T11:52:41.252Z,101774.56
2023-05-14T11:55:11.529Z,101775.56
2023-05-14T11:57:38.050Z,101765.47
2023-05-14T12:00:09.019Z,101761.53
2023-05-14T12:02:36.432Z,101760.47
2023-05-14T12:05:03.124Z,101761.19
2023-05-14T12:07:30.432Z,101757.50
2023-05-14T12:10:01.923Z,101757.50
2023-05-14T12:12:34.161Z,101753.56
2023-05-14T12:15:00.669Z,101752.63
2023-05-14T12:17:27.308Z,101746.59
2023-05-14T12:19:53.830Z,101751.31
2023-05-14T12:22:21.979Z,101745.56
2023-05-14T12:24:55.963Z,101745.97
2023-05-14T12:27:27.207Z,101740.75
2023-05-14T12:30:12.945Z,101743.44
2023-05-14T12:32:46.897Z,101740.13
2023-05-14T12:35:13.451Z,101727.31
2023-05-14T12:37:40.049Z,101737.41
2023-05-14T12:40:12.839Z,101725.16
2023-05-14T12:42:39.221Z,101719.88
2023-05-14T12:45:09.201Z,101720.59
2023-05-14T12:47:36.753Z,101721.38
2023-05-14T12:50:03.712Z,101726.34
2023-05-14T12:52:38.460Z,101725.13
2023-05-14T12:55:07.363Z,101719.38
2023-05-14T12:57:35.487Z,101720.56
2023-05-14T13:00:06.377Z,101725.81
2023-05-14T13:02:32.894Z,101720.66
2023-05-14T13:05:05.782Z,101725.63
2023-05-14T13:07:32.329Z,101715.34
2023-05-14T13:09:58.797Z,101724.06
2023-05-14T13:12:25.285Z,101726.31
2023-05-14T13:14:54.208Z,101715.94
2023-05-14T13:17:20.742Z,101715.63
2023-05-14T13:19:47.200Z,101718.22
2023-05-14T13:22:14.429Z,101711.44
2023-05-14T13:24:40.806Z,101709.06
2023-05-14T13:27:07.191Z,101714.06
2023-05-14T13:29:33.611Z,101695.69
2023-05-14T13:32:00.073Z,101711.75
2023-05-14T13:34:26.568Z,101709.59
2023-05-14T13:36:53.108Z,101709.09
2023-05-14T13:39:22.586Z,101708.03
2023-05-14T13:41:50.627Z,101700.34
2023-05-14T13:44:17.290Z,101686.28
2023-05-14T13:46:44.126Z,101693.53
2023-05-14T13:49:11.180Z,101686.66
2023-05-14T13:51:40.559Z,101697.44
2023-05-14T13:54:07.293Z,101694.41
2023-05-14T13:56:33.860Z,101692.22
2023-05-14T13:59:00.641Z,101687.28
2023-05-14T14:01:27.266Z,101689.50
2023-05-14T14:03:53.741Z,101679.97
2023-05-14T14:06:20.292Z,101677.38
2023-05-14T14:08:46.830Z,101676.44
2023-05-14T14:11:16.948Z,101681.06
2023-05-14T14:13:46.374Z,101674.25
2023-05-14T14:16:13.214Z,101668.88
2023-05-14T14:18:39.765Z,101671.69
2023-05-14T14:21:06.361Z,101663.06
2023-05-14T14:23:32.875Z,101667.63
2023-05-14T14:25:59.376Z,101659.72
2023-05-14T14:28:26.102Z,101662.38
2023-05-14T14:30:52.662Z,101664.50
2023-05-14T14:33:19.050Z,101664.75
2023-05-14T14:35:46.254Z,101649.75
2023-05-14T14:38:12.748Z,101651.72
2023-05-14T14:40:39.255Z,101654.84
2023-05-14T14:43:05.716Z,101656.00
2023-05-14T14:45:32.176Z,101648.97
2023-05-14T14:48:25.255Z,101649.97
2023-05-14T14:50:52.266Z,101643.59
2023-05-14T14:53:19.900Z,101649.09
2023-05-14T14:55:46.867Z,101639.41
2023-05-14T14:58:13.240Z,101641.84
2023-05-14T15:00:40.261Z,101636.38
2023-05-14T15:03:08.863Z,101628.84
2023-05-14T15:05:35.657Z,101634.44
2023-05-14T15:08:05.268Z,101630.09
2023-05-14T15:10:32.851Z,101634.81
2023-05-14T15:12:59.837Z,101637.72
2023-05-14T15:15:26.393Z,101630.69
2023-05-14T15:17:52.851Z,101636.53
2023-05-14T15:20:19.282Z,101622.94
2023-05-14T15:22:45.779Z,101619.03
2023-05-14T15:25:12.410Z,101626.09
2023-05-14T15:27:38.864Z,101623.09
2023-05-14T15:30:06.272Z,101621.78
2023-05-14T15:32:33.711Z,101630.81
2023-05-14T15:35:01.082Z,101623.78
2023-05-14T15:37:27.617Z,101618.41
2023-05-14T15:39:54.080Z,101624.34
2023-05-14T15:42:20.984Z,101613.38
2023-05-14T15:44:47.596Z,101614.75
2023-05-14T15:47:14.077Z,101615.34
2023-05-14T15:49:40.515Z,101607.28
2023-05-14T15:52:07.228Z,101599.25
2023-05-14T15:54:33.781Z,101605.34
2023-05-14T15:57:00.926Z,101605.94
2023-05-14T15:59:27.416Z,101600.63
2023-05-14T16:01:53.890Z,101608.59
2023-05-14T16:04:23.057Z,101597.00
2023-05-14T16:06:50.793Z,101604.00
2023-05-14T16:09:17.327Z,101596.31
2023-05-14T16:11:43.712Z,101604.47
2023-05-14T16:14:10.521Z,101605.59
2023-05-14T16:16:36.979Z,101617.22
2023-05-14T16:19:03.487Z,101617.31
2023-05-14T16:21:29.960Z,101613.19
2023-05-14T16:23:56.676Z,101615.69
2023-05-14T16:26:23.158Z,101620.50
2023-05-14T16:28:49.668Z,101627.06
2023-05-14T16:31:16.372Z,101626.41
2023-05-14T16:33:42.891Z,101630.66
2023-05-14T16:36:09.384Z,101639.13
2023-05-14T16:38:41.465Z,101641.50
2023-05-14T16:41:14.643Z,101635.22
2023-05-14T16:43:41.142Z,101637.75
2023-05-14T16:46:08.163Z,101643.78
2023-05-14T16:48:34.678Z,101649.72
2023-05-14T16:51:01.150Z,101654.31
2023-05-14T16:53:27.619Z,101654.53
2023-05-14T16:55:54.248Z,101659.91
2023-05-14T16:58:20.929Z,101655.63
2023-05-14T17:00:47.474Z,101661.16
2023-05-14T17:03:14.096Z,101656.97
2023-05-14T17:05:40.697Z,101652.94
2023-05-14T17:08:07.076Z,101657.66
2023-05-14T17:10:33.570Z,101657.59
2023-05-14T17:13:00.364Z,101652.34
2023-05-14T17:15:26.876Z,101647.94
2023-05-14T17:17:55.944Z,101653.28
2023-05-14T17:20:22.559Z,101649.75
2023-05-14T17:22:50.473Z,101652.66
2023-05-14T17:25:18.155Z,101655.72
2023-05-14T17:27:46.995Z,101651.44
2023-05-14T17:30:13.504Z,101658.84
2023-05-14T17:32:44.041Z,101659.88
2023-05-14T17:35:13.706Z,101653.75
2023-05-14T17:37:42.761Z,101649.34
2023-05-14T17:40:09.857Z,101661.00
2023-05-14T17:42:36.316Z,101657.34
2023-05-14T17:45:02.908Z,101662.66
2023-05-14T17:47:29.485Z,101651.97
2023-05-14T17:49:56.095Z,101660.09
2023-05-14T17:52:22.667Z,101655.84
2023-05-14T17:54:49.226Z,101659.66
2023-05-14T17:57:15.917Z,101662.50
2023-05-14T17:59:42.424Z,101662.66
2023-05-14T18:02:08.920Z,101667.41
2023-05-14T18:04:35.348Z,101661.41
2023-05-14T18:07:03.109Z,101668.56
2023-05-14T18:09:29.518Z,101664.16
2023-05-14T18:11:56.999Z,101670.44
2023-05-14T18:14:23.553Z,101667.03
2023-05-14T18:16:50.135Z,101662.63
2023-05-14T18:19:16.762Z,101678.75
2023-05-14T18:21:43.320Z,101671.84
2023-05-14T18:24:09.745Z,101672.09
2023-05-14T18:26:36.490Z,101672.22
2023-05-14T18:29:02.938Z,101679.38
2023-05-14T18:31:29.424Z,101682.94
2023-05-14T18:33:55.864Z,101674.97
2023-05-14T18:36:22.429Z,101677.81
2023-05-14T18:38:48.963Z,101683.25
2023-05-14T18:41:15.590Z,101679.78
2023-05-14T18:43:42.010Z,101685.22
2023-05-14T18:46:12.278Z,101677.34
2023-05-14T18:48:38.825Z,101683.63
2023-05-14T18:51:05.564Z,101678.25
2023-05-14T18:53:32.100Z,101685.38
2023-05-14T18:56:00.180Z,101683.53
2023-05-14T18:58:26.671Z,101679.94
2023-05-14T19:00:53.232Z,101692.44
2023-05-14T19:03:23.032Z,101685.41
2023-05-14T19:05:51.712Z,101691.63
2023-05-14T19:08:18.139Z,101689.91
2023-05-14T19:10:44.661Z,101681.94
2023-05-14T19:13:11.548Z,101682.91
2023-05-14T19:15:38.012Z,101689.19
2023-05-14T19:18:04.822Z,101690.09
2023-05-14T19:20:31.296Z,101689.22
2023-05-14T19:22:57.745Z,101696.38
2023-05-14T19:25:27.912Z,101694.66
2023-05-14T19:27:55.447Z,101695.56
2023-05-14T19:30:23.281Z,101692.06
2023-05-14T19:32:51.993Z,101688.53
2023-05-14T19:35:20.610Z,101694.72
2023-05-14T19:37:47.214Z,101697.44
2023-05-14T19:40:13.716Z,101703.69
2023-05-14T19:42:42.581Z,101702.00
2023-05-14T19:45:10.183Z,101699.34
2023-05-14T19:47:36.823Z,101696.75
2023-05-14T19:50:03.526Z,101702.06
2023-05-14T19:52:29.934Z,101696.75
2023-05-14T19:54:56.307Z,101698.53
2023-05-14T19:57:22.843Z,101701.22
2023-05-14T19:59:49.382Z,101700.38
2023-05-14T20:02:18.099Z,101694.19
2023-05-14T20:04:45.975Z,101696.03
2023-05-14T20:07:15.570Z,101692.56
2023-05-14T20:09:42.235Z,101696.97
2023-05-14T20:12:09.416Z,101688.16
2023-05-14T20:14:36.195Z,101687.31
2023-05-14T20:17:06.531Z,101686.44
2023-05-14T20:19:33.105Z,101681.19
2023-05-14T20:21:59.596Z,101671.44
2023-05-14T20:24:26.022Z,101667.03
2023-05-14T20:26:52.559Z,101668.00
2023-05-14T20:29:18.988Z,101667.09
2023-05-14T20:31:45.445Z,101671.56
2023-05-14T20:34:11.834Z,101665.44
2023-05-14T20:36:41.737Z,101664.56
2023-05-14T20:39:09.942Z,101667.34
2023-05-14T20:41:36.664Z,101656.78
2023-05-14T20:44:03.389Z,101666.53
2023-05-14T20:46:29.921Z,101669.16
2023-05-14T20:48:57.320Z,101656.81
2023-05-14T20:51:26.326Z,101662.16
2023-05-14T20:53:52.732Z,101663.09
2023-05-14T20:56:19.150Z,101661.31
2023-05-14T20:58:45.691Z,101664.03
2023-05-14T21:01:12.251Z,101658.75
2023-05-14T21:03:38.844Z,101672.03
2023-05-14T21:06:05.522Z,101656.19
2023-05-14T21:08:35.470Z,101672.09
2023-05-14T21:11:01.922Z,101675.66
2023-05-14T21:13:28.400Z,101666.81
2023-05-14T21:15:54.855Z,101663.28
2023-05-14T21:18:26.973Z,101657.97
2023-05-14T21:20:53.462Z,101652.66
2023-05-14T21:23:19.863Z,101647.38
2023-05-14T21:25:46.328Z,101644.72
2023-05-14T21:28:15.789Z,101652.69
2023-05-14T21:30:44.582Z,101649.16
2023-05-14T21:33:11.146Z,101643.88
2023-05-14T21:35:37.547Z,101658.03
2023-05-14T21:38:04.469Z,101663.38
2023-05-14T21:40:31.184Z,101656.28
2023-05-14T21:42:57.583Z,101650.09
2023-05-14T21:45:24.099Z,101645.72
2023-05-14T21:47:50.729Z,101643.94
2023-05-14T21:50:17.440Z,101631.59
2023-05-14T21:52:43.933Z,101646.63
2023-05-14T21:55:13.414Z,101650.19
2023-05-14T21:57:40.875Z,101652.84
2023-05-14T22:00:11.850Z,101647.56
2023-05-14T22:02:38.609Z,101642.25
2023-05-14T22:05:05.656Z,101639.59
2023-05-14T22:07:32.869Z,101638.72
2023-05-14T22:09:59.501Z,101638.72
2023-05-14T22:12:26.741Z,101645.81
2023-05-14T22:14:53.258Z,101645.81
2023-05-14T22:17:19.715Z,101655.53
2023-05-14T22:19:46.296Z,101647.56
2023-05-14T22:22:16.758Z,101642.28
2023-05-14T22:24:43.224Z,101631.69
2023-05-14T22:27:09.660Z,101626.41
2023-05-14T22:29:38.141Z,101621.13
2023-05-14T22:32:07.586Z,101613.16
2023-05-14T22:34:34.031Z,101614.03
2023-05-14T22:37:00.533Z,101612.28
2023-05-14T22:39:33.058Z,101621.97
2023-05-14T22:41:59.601Z,101606.09
2023-05-14T22:44:27.725Z,101610.50
2023-05-14T22:46:55.811Z,101614.03
2023-05-14T22:49:22.468Z,101606.09
2023-05-14T22:51:52.428Z,101609.63
2023-05-14T22:54:18.948Z,101603.44
2023-05-14T22:56:45.505Z,101598.16
2023-05-14T22:59:11.847Z,101592.00
2023-05-14T23:01:38.441Z,101587.56
2023-05-14T23:04:04.988Z,101577.84
2023-05-14T23:06:31.852Z,101575.22
2023-05-14T23:08:58.349Z,101581.38
2023-05-14T23:11:26.004Z,101575.22
2023-05-14T23:13:52.489Z,101576.97
2023-05-14T23:16:19.085Z,101580.53
2023-05-14T23:18:45.757Z,101588.47
2023-05-14T23:21:13.311Z,101591.13
2023-05-14T23:23:39.844Z,101586.69
2023-05-14T23:26:07.433Z,101577.84
2023-05-14T23:28:37.069Z,101583.16
2023-05-14T23:31:03.458Z,101585.78
2023-05-14T23:33:29.872Z,101581.41
2023-05-14T23:35:56.385Z,101569.94
2023-05-14T23:38:22.798Z,101579.66
2023-05-14T23:40:49.369Z,101576.09
2023-05-14T23:43:15.850Z,101569.06
2023-05-14T23:45:42.313Z,101576.13
2023-05-14T23:48:08.795Z,101573.47
2023-05-14T23:50:35.300Z,101573.50
2023-05-14T23:53:04.986Z,101568.19
2023-05-14T23:55:31.498Z,101575.22
2023-05-14T23:57:58.152Z,101569.91
